createdAt,value
2023-01-01T00:01:50.335Z,97790.03
2023-01-01T00:04:17.765Z,97783.34
2023-01-01T00:06:46.166Z,97801.44
2023-01-01T00:09:32.192Z,97799.88
2023-01-01T00:11:59.558Z,97800.22
2023-01-01T00:14:28.132Z,97787.63
2023-01-01T00:16:56.461Z,97787.94
2023-01-01T00:19:23.721Z,97793.91
2023-01-01T00:21:51.021Z,97777.06
2023-01-01T00:24:18.277Z,97783.50
2023-01-01T00:26:45.711Z,97795.81
2023-01-01T00:29:13.004Z,97789.78
2023-01-01T00:31:40.248Z,97787.63
2023-01-01T00:34:10.030Z,97785.28
2023-01-01T00:36:37.425Z,97791.38
2023-01-01T00:39:05.065Z,97791.59
2023-01-01T00:41:32.363Z,97793.19
2023-01-01T00:43:59.730Z,97794.53
2023-01-01T00:46:27.094Z,97783.88
2023-01-01T00:48:54.390Z,97792.00
2023-01-01T00:51:21.628Z,97794.75
2023-01-01T00:53:48.838Z,97793.88
2023-01-01T00:56:16.058Z,97794.81
2023-01-01T00:58:43.469Z,97794.13
2023-01-01T01:01:10.948Z,97788.63
2023-01-01T01:03:39.599Z,97795.19
2023-01-01T01:06:09.142Z,97803.59
2023-01-01T01:08:38.856Z,97794.38
2023-01-01T01:11:10.228Z,97802.16
2023-01-01T01:13:38.837Z,97802.63
2023-01-01T01:16:17.791Z,97802.63
2023-01-01T01:18:46.059Z,97800.47
2023-01-01T01:21:18.698Z,97797.97
2023-01-01T01:23:46.336Z,97796.66
2023-01-01T01:26:15.476Z,97801.84
2023-01-01T01:28:49.337Z,97800.03
2023-01-01T01:31:19.464Z,97803.47
2023-01-01T01:33:48.573Z,97793.72
2023-01-01T01:36:17.828Z,97798.06
2023-01-01T01:38:45.442Z,97791.28
2023-01-01T01:41:28.016Z,97797.47
2023-01-01T01:44:49.508Z,97801.06
2023-01-01T01:47:31.420Z,97798.81
2023-01-01T01:50:17.579Z,97784.50
2023-01-01T01:53:19.150Z,97781.50
2023-01-01T01:55:56.302Z,97779.38
2023-01-01T01:58:25.432Z,97784.59
2023-01-01T02:00:53.516Z,97776.84
2023-01-01T02:03:32.948Z,97778.59
2023-01-01T02:06:01.592Z,97768.84
2023-01-01T02:08:30.126Z,97766.78
2023-01-01T02:10:57.440Z,97767.81
2023-01-01T02:13:24.701Z,97761.28
2023-01-01T02:16:08.622Z,97750.66
2023-01-01T02:19:25.851Z,97749.34
2023-01-01T02:22:28.512Z,97752.03
2023-01-01T02:25:31.794Z,97751.34
2023-01-01T02:28:09.159Z,97749.09
2023-01-01T02:30:39.300Z,97741.47
2023-01-01T02:33:22.764Z,97744.41
2023-01-01T02:35:58.862Z,97741.66
2023-01-01T02:38:43.194Z,97746.41
2023-01-01T02:41:19.512Z,97738.16
2023-01-01T02:43:46.784Z,97740.19
2023-01-01T02:48:52.530Z,97732.72
2023-01-01T02:51:37.916Z,97741.97
2023-01-01T02:54:08.025Z,97737.72
2023-01-01T02:56:58.863Z,97738.31
2023-01-01T03:00:19.762Z,97749.25
2023-01-01T03:03:10.282Z,97743.97
2023-01-01T03:06:25.016Z,97754.47
2023-01-01T03:09:07.324Z,97740.91
2023-01-01T03:12:17.635Z,97744.19
2023-01-01T03:15:06.572Z,97754.56
2023-01-01T03:17:40.212Z,97757.75
2023-01-01T03:20:17.532Z,97764.09
2023-01-01T03:22:48.331Z,97747.19
2023-01-01T03:25:21.961Z,97758.44
2023-01-01T03:28:22.717Z,97762.72
2023-01-01T03:30:52.807Z,97767.56
2023-01-01T03:33:28.081Z,97762.13
2023-01-01T03:36:15.562Z,97763.31
2023-01-01T03:39:21.322Z,97769.47
2023-01-01T03:42:23.849Z,97769.00
2023-01-01T03:45:12.048Z,97779.25
2023-01-01T03:47:39.476Z,97779.94
2023-01-01T03:50:07.492Z,97792.25
2023-01-01T03:52:49.792Z,97787.66
2023-01-01T03:55:38.434Z,97792.06
2023-01-01T03:58:43.849Z,97783.94
2023-01-01T04:01:36.395Z,97779.59
2023-01-01T04:04:05.851Z,97774.38
2023-01-01T04:06:34.138Z,97784.09
2023-01-01T04:09:03.437Z,97791.66
2023-01-01T04:11:51.219Z,97807.09
2023-01-01T04:14:48.257Z,97793.28
2023-01-01T04:17:15.651Z,97791.50
2023-01-01T04:19:42.940Z,97784.69
2023-01-01T04:22:10.203Z,97783.44
2023-01-01T04:24:37.405Z,97780.44
2023-01-01T04:27:04.803Z,97786.81
2023-01-01T04:29:32.205Z,97806.22
2023-01-01T04:31:59.355Z,97795.66
2023-01-01T04:34:26.568Z,97798.19
2023-01-01T04:36:53.824Z,97802.22
2023-01-01T04:39:21.131Z,97819.28
2023-01-01T04:41:48.463Z,97813.38
2023-01-01T04:44:15.729Z,97827.59
2023-01-01T04:46:43.076Z,97830.34
2023-01-01T04:49:10.301Z,97834.50
2023-01-01T04:51:37.602Z,97828.47
2023-01-01T04:54:05.073Z,97839.56
2023-01-01T04:56:32.309Z,97837.84
2023-01-01T04:58:59.532Z,97840.00
2023-01-01T05:01:29.178Z,97830.28
2023-01-01T05:03:58.738Z,97837.44
2023-01-01T05:06:26.798Z,97844.72
2023-01-01T05:08:55.472Z,97847.41
2023-01-01T05:11:29.041Z,97865.09
2023-01-01T05:14:00.006Z,97872.41
2023-01-01T05:16:31.393Z,97862.78
2023-01-01T05:18:58.835Z,97865.78
2023-01-01T05:21:38.670Z,97862.84
2023-01-01T05:24:09.579Z,97837.59
2023-01-01T05:26:44.263Z,97861.19
2023-01-01T05:29:16.551Z,97839.31
2023-01-01T05:31:46.147Z,97851.19
2023-01-01T05:34:13.406Z,97855.44
2023-01-01T05:36:40.737Z,97860.94
2023-01-01T05:39:12.025Z,97864.34
2023-01-01T05:41:40.999Z,97872.72
2023-01-01T05:44:09.798Z,97870.25
2023-01-01T05:46:37.671Z,97875.09
2023-01-01T05:49:05.148Z,97872.41
2023-01-01T05:54:01.296Z,97874.69
2023-01-01T05:56:28.844Z,97875.13
2023-01-01T05:58:56.775Z,97875.47
2023-01-01T06:01:29.583Z,97866.84
2023-01-01T06:03:58.951Z,97866.47
2023-01-01T06:06:30.221Z,97865.56
2023-01-01T06:09:00.788Z,97868.91
2023-01-01T06:11:29.088Z,97870.94
2023-01-01T06:13:59.845Z,97870.69
2023-01-01T06:16:28.683Z,97877.66
2023-01-01T06:18:56.263Z,97866.47
2023-01-01T06:21:26.334Z,97865.56
2023-01-01T06:23:56.809Z,97857.16
2023-01-01T06:26:32.265Z,97865.53
2023-01-01T06:29:02.941Z,97868.22
2023-01-01T06:31:34.243Z,97871.41
2023-01-01T06:34:04.419Z,97878.88
2023-01-01T06:36:31.522Z,97883.97
2023-01-01T06:39:00.235Z,97891.03
2023-01-01T06:41:28.488Z,97880.50
2023-01-01T06:43:58.186Z,97875.13
2023-01-01T06:46:33.331Z,97882.06
2023-01-01T06:49:05.370Z,97891.28
2023-01-01T06:51:39.552Z,97885.47
2023-01-01T06:54:08.698Z,97893.59
2023-01-01T06:56:36.670Z,97898.00
2023-01-01T06:59:05.153Z,97895.13
2023-01-01T07:01:36.218Z,97891.69
2023-01-01T07:04:08.367Z,97900.84
2023-01-01T07:06:36.629Z,97900.50
2023-01-01T07:09:06.061Z,97907.63
2023-01-01T07:11:34.304Z,97901.06
2023-01-01T07:14:02.424Z,97900.56
2023-01-01T07:16:29.648Z,97901.38
2023-01-01T07:18:57.691Z,97897.88
2023-01-01T07:21:45.204Z,97904.25
2023-01-01T07:24:15.899Z,97913.28
2023-01-01T07:26:43.322Z,97912.22
2023-01-01T07:29:13.045Z,97913.84
2023-01-01T07:31:43.079Z,97918.94
2023-01-01T07:34:17.202Z,97917.44
2023-01-01T07:36:44.812Z,97918.94
2023-01-01T07:39:12.810Z,97921.88
2023-01-01T07:41:40.196Z,97928.00
2023-01-01T07:44:07.684Z,97942.28
2023-01-01T07:46:36.752Z,97956.84
2023-01-01T07:49:04.704Z,97958.03
2023-01-01T07:51:32.151Z,97952.75
2023-01-01T07:54:05.724Z,97954.25
2023-01-01T07:56:35.975Z,97967.50
2023-01-01T07:59:03.600Z,97967.28
2023-01-01T08:01:30.967Z,97971.75
2023-01-01T08:03:58.350Z,97959.53
2023-01-01T08:06:25.645Z,97968.88
2023-01-01T08:08:53.083Z,97973.06
2023-01-01T08:11:20.374Z,97978.69
2023-01-01T08:13:47.604Z,97979.88
2023-01-01T08:16:14.921Z,97992.06
2023-01-01T08:18:42.378Z,97994.16
2023-01-01T08:21:09.743Z,97997.44
2023-01-01T08:23:37.094Z,98005.09
2023-01-01T08:26:04.805Z,97999.72
2023-01-01T08:28:32.146Z,98002.56
2023-01-01T08:31:00.403Z,98005.91
2023-01-01T08:33:29.847Z,98004.56
2023-01-01T08:35:57.362Z,98014.28
2023-01-01T08:38:24.740Z,98010.00
2023-01-01T08:40:52.248Z,98002.25
2023-01-01T08:43:19.476Z,98002.16
2023-01-01T08:45:47.039Z,97998.50
2023-01-01T08:48:14.698Z,97999.66
2023-01-01T08:50:42.179Z,98003.00
2023-01-01T08:53:10.674Z,98000.66
2023-01-01T08:55:38.300Z,97989.97
2023-01-01T08:58:08.774Z,97990.59
2023-01-01T09:00:36.206Z,97999.41
2023-01-01T09:03:03.879Z,97990.78
2023-01-01T09:05:31.170Z,97985.88
2023-01-01T09:07:58.525Z,97994.72
2023-01-01T09:10:25.772Z,97986.53
2023-01-01T09:12:53.059Z,97976.56
2023-01-01T09:15:20.392Z,97974.69
2023-01-01T09:17:47.586Z,97977.50
2023-01-01T09:20:15.022Z,97971.50
2023-01-01T09:22:42.567Z,97968.88
2023-01-01T09:25:09.952Z,97973.72
2023-01-01T09:27:37.697Z,97961.41
2023-01-01T09:30:05.872Z,97971.34
2023-01-01T09:32:33.107Z,97970.06
2023-01-01T09:35:01.356Z,97967.44
2023-01-01T09:37:28.997Z,97970.16
2023-01-01T09:39:56.176Z,97962.34
2023-01-01T09:42:58.276Z,97958.81
2023-01-01T09:46:02.913Z,97950.63
2023-01-01T09:48:31.867Z,97945.16
2023-01-01T09:51:03.827Z,97938.38
2023-01-01T09:53:58.114Z,97936.97
2023-01-01T09:56:29.741Z,97946.19
2023-01-01T09:59:01.568Z,97945.28
2023-01-01T10:01:50.334Z,97942.28
2023-01-01T10:04:40.435Z,97954.59
2023-01-01T10:07:34.662Z,97966.00
2023-01-01T10:10:52.749Z,97980.97
2023-01-01T10:13:45.396Z,97989.38
2023-01-01T10:16:42.962Z,97989.31
2023-01-01T10:19:37.906Z,97998.03
2023-01-01T10:22:19.153Z,98008.50
2023-01-01T10:24:57.746Z,98008.44
2023-01-01T10:27:40.015Z,97992.22
2023-01-01T10:30:20.763Z,97991.22
2023-01-01T10:32:55.717Z,97995.34
2023-01-01T10:35:32.913Z,97990.91
2023-01-01T10:38:02.183Z,97991.66
2023-01-01T10:40:31.001Z,97999.22
2023-01-01T10:43:01.069Z,97989.63
2023-01-01T10:45:52.341Z,97985.28
2023-01-01T10:48:22.705Z,97978.75
2023-01-01T10:51:02.159Z,97966.97
2023-01-01T10:53:44.207Z,97975.88
2023-01-01T10:56:21.126Z,97975.66
2023-01-01T10:58:54.838Z,97961.47
2023-01-01T11:01:26.392Z,97969.34
2023-01-01T11:04:22.304Z,97976.66
2023-01-01T11:06:49.753Z,97969.88
2023-01-01T11:09:32.064Z,97960.16
2023-01-01T11:12:15.190Z,97971.47
2023-01-01T11:14:58.546Z,97976.50
2023-01-01T11:17:36.889Z,97979.22
2023-01-01T11:20:06.288Z,97981.72
2023-01-01T11:22:53.062Z,97984.75
2023-01-01T11:25:32.676Z,97995.53
2023-01-01T11:28:24.267Z,97985.38
2023-01-01T11:31:19.687Z,97989.03
2023-01-01T11:33:53.102Z,97979.34
2023-01-01T11:36:34.191Z,97977.19
2023-01-01T11:39:27.182Z,97959.44
2023-01-01T11:41:57.327Z,97963.81
2023-01-01T11:44:40.490Z,97955.78
2023-01-01T11:47:20.604Z,97956.56
2023-01-01T11:49:53.746Z,97965.03
2023-01-01T11:52:51.385Z,97972.81
2023-01-01T11:55:45.233Z,97962.31
2023-01-01T11:58:25.093Z,97970.69
2023-01-01T12:00:57.902Z,97966.44
2023-01-01T12:04:00.029Z,97968.00
2023-01-01T12:06:34.636Z,97960.91
2023-01-01T12:09:43.497Z,97954.28
2023-01-01T12:12:33.541Z,97954.44
2023-01-01T12:15:39.540Z,97948.84
2023-01-01T12:18:42.388Z,97948.81
2023-01-01T12:21:26.410Z,97942.72
2023-01-01T12:23:54.497Z,97945.03
2023-01-01T12:26:31.593Z,97942.06
2023-01-01T12:30:01.377Z,97937.06
2023-01-01T12:32:55.973Z,97935.97
2023-01-01T12:35:58.892Z,97940.69
2023-01-01T12:39:00.622Z,97934.72
2023-01-01T12:41:51.337Z,97931.84
2023-01-01T12:44:34.275Z,97938.69
2023-01-01T12:47:22.624Z,97946.38
2023-01-01T12:50:19.992Z,97950.19
2023-01-01T12:53:17.574Z,97949.25
2023-01-01T12:55:53.673Z,97950.44
2023-01-01T12:58:35.341Z,97947.56
2023-01-01T13:01:33.767Z,97943.94
2023-01-01T13:04:10.978Z,97948.88
2023-01-01T13:07:04.560Z,97946.28
2023-01-01T13:09:45.724Z,97945.28
2023-01-01T13:12:20.449Z,97952.28
2023-01-01T13:14:52.231Z,97951.84
2023-01-01T13:17:26.748Z,97954.97
2023-01-01T13:20:22.489Z,97943.31
2023-01-01T13:22:50.019Z,97943.00
2023-01-01T13:25:17.172Z,97940.47
2023-01-01T13:27:56.527Z,97949.41
2023-01-01T13:30:35.933Z,97956.22
2023-01-01T13:33:35.087Z,97962.63
2023-01-01T13:36:12.025Z,97975.56
2023-01-01T13:38:53.755Z,97982.44
2023-01-01T13:41:30.295Z,97985.56
2023-01-01T13:44:16.717Z,97981.78
2023-01-01T13:46:44.314Z,97982.00
2023-01-01T13:50:07.194Z,97979.59
2023-01-01T13:52:37.141Z,97979.88
2023-01-01T13:55:33.820Z,97982.31
2023-01-01T13:58:03.594Z,97986.13
2023-01-01T14:00:59.987Z,97979.56
2023-01-01T14:03:29.203Z,97985.16
2023-01-01T14:06:01.809Z,97989.97
2023-01-01T14:08:37.619Z,97990.78
2023-01-01T14:11:21.242Z,97997.94
2023-01-01T14:13:49.168Z,97999.53
2023-01-01T14:16:16.828Z,98007.22
2023-01-01T14:18:48.815Z,98015.69
2023-01-01T14:21:29.329Z,98011.19
2023-01-01T14:24:07.061Z,98019.94
2023-01-01T14:26:39.233Z,98010.66
2023-01-01T14:29:17.183Z,98014.31
2023-01-01T14:31:46.726Z,98012.13
2023-01-01T14:34:33.174Z,98007.13
2023-01-01T14:37:19.939Z,98005.25
2023-01-01T14:39:47.217Z,98007.38
2023-01-01T14:42:17.747Z,98015.47
2023-01-01T14:44:50.845Z,98012.50
2023-01-01T14:47:33.059Z,98022.94
2023-01-01T14:50:09.541Z,98027.66
2023-01-01T14:52:37.265Z,98039.38
2023-01-01T14:55:06.178Z,98039.28
2023-01-01T14:57:37.440Z,98042.72
2023-01-01T15:00:22.901Z,98041.72
2023-01-01T15:02:50.269Z,98039.22
2023-01-01T15:05:38.112Z,98039.09
2023-01-01T15:08:19.381Z,98056.06
2023-01-01T15:10:47.313Z,98052.28
2023-01-01T15:13:24.843Z,98051.44
2023-01-01T15:16:18.630Z,98046.03
2023-01-01T15:18:53.925Z,98043.91
2023-01-01T15:21:33.140Z,98049.72
2023-01-01T15:24:22.298Z,98052.91
2023-01-01T15:26:54.575Z,98058.84
2023-01-01T15:29:40.251Z,98057.66
2023-01-01T15:32:15.565Z,98061.59
2023-01-01T15:34:55.479Z,98061.78
2023-01-01T15:37:36.171Z,98068.00
2023-01-01T15:40:23.214Z,98054.91
2023-01-01T15:42:59.572Z,98074.19
2023-01-01T15:45:30.625Z,98065.84
2023-01-01T15:48:21.041Z,98074.13
2023-01-01T15:50:50.960Z,98074.00
2023-01-01T15:53:28.070Z,98074.75
2023-01-01T15:56:09.901Z,98072.56
2023-01-01T15:58:50.076Z,98085.16
2023-01-01T16:01:29.036Z,98081.28
2023-01-01T16:04:29.060Z,98084.59
2023-01-01T16:06:58.872Z,98086.81
2023-01-01T16:09:26.501Z,98075.38
2023-01-01T16:11:56.141Z,98076.66
2023-01-01T16:14:23.744Z,98082.13
2023-01-01T16:17:00.975Z,98090.47
2023-01-01T16:19:31.638Z,98085.25
2023-01-01T16:21:59.410Z,98080.84
2023-01-01T16:24:27.873Z,98079.78
2023-01-01T16:26:55.094Z,98075.22
2023-01-01T16:29:22.482Z,98066.94
2023-01-01T16:31:52.201Z,98068.81
2023-01-01T16:34:19.527Z,98067.81
2023-01-01T16:36:49.267Z,98063.53
2023-01-01T16:39:16.857Z,98065.25
2023-01-01T16:41:44.968Z,98066.88
2023-01-01T16:44:15.359Z,98070.03
2023-01-01T16:46:42.838Z,98069.59
2023-01-01T16:49:10.274Z,98071.22
2023-01-01T16:51:43.029Z,98061.53
2023-01-01T16:54:11.123Z,98059.84
2023-01-01T16:56:38.534Z,98074.69
2023-01-01T16:59:05.901Z,98081.09
2023-01-01T17:01:33.424Z,98082.72
2023-01-01T17:04:00.929Z,98068.75
2023-01-01T17:06:28.518Z,98056.97
2023-01-01T17:08:55.858Z,98059.91
2023-01-01T17:11:25.091Z,98066.81
2023-01-01T17:13:53.048Z,98055.69
2023-01-01T17:16:27.055Z,98065.59
2023-01-01T17:21:46.376Z,98059.91
2023-01-01T17:24:18.995Z,98059.63
2023-01-01T17:26:50.044Z,98061.91
2023-01-01T17:29:17.490Z,98067.06
2023-01-01T17:31:44.988Z,98072.88
2023-01-01T17:34:14.271Z,98067.84
2023-01-01T17:36:43.886Z,98071.38
2023-01-01T17:39:15.547Z,98066.84
2023-01-01T17:41:44.780Z,98073.56
2023-01-01T17:44:12.258Z,98071.72
2023-01-01T17:46:40.230Z,98084.78
2023-01-01T17:49:09.174Z,98081.19
2023-01-01T17:51:37.303Z,98079.56
2023-01-01T17:54:07.338Z,98085.69
2023-01-01T17:56:34.928Z,98093.03
2023-01-01T17:59:02.298Z,98084.81
2023-01-01T18:01:32.881Z,98091.34
2023-01-01T18:04:07.125Z,98092.13
2023-01-01T18:06:41.969Z,98098.50
2023-01-01T18:09:13.395Z,98094.94
2023-01-01T18:11:41.970Z,98096.47
2023-01-01T18:14:10.046Z,98102.44
2023-01-01T18:16:40.240Z,98108.50
2023-01-01T18:19:08.084Z,98106.38
2023-01-01T18:21:35.637Z,98109.72
2023-01-01T18:24:03.034Z,98117.78
2023-01-01T18:26:32.030Z,98123.19
2023-01-01T18:29:01.977Z,98131.25
2023-01-01T18:31:32.998Z,98125.16
2023-01-01T18:34:04.792Z,98107.25
2023-01-01T18:36:34.515Z,98117.16
2023-01-01T18:39:37.807Z,98115.88
2023-01-01T18:42:56.517Z,98116.44
2023-01-01T18:45:24.627Z,98112.34
2023-01-01T18:47:52.263Z,98115.00
2023-01-01T18:50:28.192Z,98114.44
2023-01-01T18:53:19.330Z,98115.38
2023-01-01T18:56:03.806Z,98124.19
2023-01-01T18:58:32.863Z,98120.66
2023-01-01T19:01:00.686Z,98115.22
2023-01-01T19:03:28.462Z,98116.19
2023-01-01T19:05:58.144Z,98118.50
2023-01-01T19:08:30.071Z,98114.06
2023-01-01T19:11:02.059Z,98112.47
2023-01-01T19:13:40.333Z,98104.38
2023-01-01T19:16:24.174Z,98101.66
2023-01-01T19:18:53.174Z,98096.16
2023-01-01T19:21:23.859Z,98098.28
2023-01-01T19:23:53.712Z,98095.41
2023-01-01T19:26:41.311Z,98102.00
2023-01-01T19:29:24.342Z,98099.22
2023-01-01T19:31:55.067Z,98105.81
2023-01-01T19:34:23.340Z,98105.59
2023-01-01T19:36:51.343Z,98109.59
2023-01-01T19:39:19.434Z,98111.22
2023-01-01T19:41:47.282Z,98113.28
2023-01-01T19:44:18.468Z,98110.91
2023-01-01T19:46:49.134Z,98112.28
2023-01-01T19:49:16.869Z,98118.03
2023-01-01T19:51:44.093Z,98118.25
2023-01-01T19:54:11.989Z,98127.97
2023-01-01T19:56:39.191Z,98120.44
2023-01-01T19:59:06.620Z,98113.13
2023-01-01T20:01:34.312Z,98116.78
2023-01-01T20:04:01.749Z,98127.06
2023-01-01T20:06:30.615Z,98119.53
2023-01-01T20:08:57.998Z,98122.59
2023-01-01T20:11:29.681Z,98124.66
2023-01-01T20:13:56.978Z,98128.19
2023-01-01T20:16:24.240Z,98129.94
2023-01-01T20:18:51.615Z,98130.81
2023-01-01T20:21:37.506Z,98131.53
2023-01-01T20:24:05.626Z,98146.03
2023-01-01T20:26:32.887Z,98137.00
2023-01-01T20:29:18.870Z,98133.22
2023-01-01T20:31:47.988Z,98134.81
2023-01-01T20:34:15.445Z,98125.69
2023-01-01T20:37:01.558Z,98127.53
2023-01-01T20:39:29.137Z,98126.38
2023-01-01T20:41:56.688Z,98134.81
2023-01-01T20:44:24.039Z,98123.72
2023-01-01T20:46:51.595Z,98133.69
2023-01-01T20:49:20.331Z,98133.78
2023-01-01T20:51:51.459Z,98125.44
2023-01-01T20:54:23.916Z,98118.59
2023-01-01T20:56:51.992Z,98127.63
2023-01-01T20:59:37.225Z,98127.50
2023-01-01T21:02:10.938Z,98122.00
2023-01-01T21:04:40.111Z,98125.41
2023-01-01T21:07:10.503Z,98124.16
2023-01-01T21:09:39.358Z,98120.50
2023-01-01T21:12:07.457Z,98125.88
2023-01-01T21:14:35.289Z,98128.53
2023-01-01T21:17:18.506Z,98127.03
2023-01-01T21:19:46.230Z,98120.84
2023-01-01T21:22:14.103Z,98118.28
2023-01-01T21:24:41.668Z,98117.97
2023-01-01T21:27:08.910Z,98121.69
2023-01-01T21:29:38.682Z,98120.28
2023-01-01T21:32:41.247Z,98122.53
2023-01-01T21:35:23.534Z,98122.97
2023-01-01T21:37:57.457Z,98128.69
2023-01-01T21:40:38.492Z,98129.59
2023-01-01T21:43:05.728Z,98125.47
2023-01-01T21:45:46.200Z,98126.22
2023-01-01T21:48:42.481Z,98131.00
2023-01-01T21:51:37.007Z,98128.78
2023-01-01T21:54:10.585Z,98130.03
2023-01-01T21:56:40.535Z,98127.66
2023-01-01T21:59:27.132Z,98120.97
2023-01-01T22:02:06.923Z,98122.38
2023-01-01T22:04:49.113Z,98120.91
2023-01-01T22:10:18.772Z,98104.28
2023-01-01T22:12:46.887Z,98111.72
2023-01-01T22:15:36.428Z,98105.78
2023-01-01T22:18:12.418Z,98112.66
2023-01-01T22:20:43.471Z,98100.19
2023-01-01T22:23:19.714Z,98104.41
2023-01-01T22:25:47.828Z,98097.41
2023-01-01T22:28:32.440Z,98093.06
2023-01-01T22:31:02.295Z,98089.84
2023-01-01T22:33:35.901Z,98088.88
2023-01-01T22:36:11.172Z,98097.34
2023-01-01T22:38:38.687Z,98104.28
2023-01-01T22:41:08.626Z,98096.78
2023-01-01T22:43:41.690Z,98094.25
2023-01-01T22:46:34.657Z,98094.78
2023-01-01T22:49:46.994Z,98091.56
2023-01-01T22:52:14.527Z,98090.44
2023-01-01T22:54:41.949Z,98093.41
2023-01-01T22:57:09.358Z,98084.22
2023-01-01T22:59:36.945Z,98080.47
2023-01-01T23:02:04.615Z,98072.25
2023-01-01T23:04:32.136Z,98078.25
2023-01-01T23:06:59.835Z,98079.00
2023-01-01T23:09:27.435Z,98075.25
2023-01-01T23:11:56.136Z,98073.72
2023-01-01T23:14:42.724Z,98064.59
2023-01-01T23:17:10.341Z,98054.22
2023-01-01T23:19:37.955Z,98064.28
2023-01-01T23:22:05.309Z,98062.09
2023-01-01T23:24:33.482Z,98062.91
2023-01-01T23:27:01.684Z,98070.47
2023-01-01T23:29:33.462Z,98067.69
2023-01-01T23:32:02.321Z,98070.31
2023-01-01T23:34:29.821Z,98068.41
2023-01-01T23:36:57.844Z,98067.38
2023-01-01T23:39:25.285Z,98067.47
2023-01-01T23:41:52.625Z,98067.47
2023-01-01T23:44:19.968Z,98058.09
2023-01-01T23:46:47.737Z,98069.19
2023-01-01T23:49:15.608Z,98069.19
2023-01-01T23:51:43.210Z,98065.50
2023-01-01T23:54:10.538Z,98064.84
2023-01-01T23:56:37.728Z,98069.31
2023-01-01T23:59:05.137Z,98066.00
